createdAt,value
2018-12-06T00:02:25.903Z,4.20
2018-12-06T00:05:00.062Z,4.30
2018-12-06T00:07:34.162Z,4.20
2018-12-06T00:10:08.470Z,4.20
2018-12-06T00:12:42.478Z,4.20
2018-12-06T00:15:25.410Z,4.20
2018-12-06T00:17:59.348Z,4.20
2018-12-06T00:20:34.085Z,4.20
2018-12-06T00:23:08.249Z,4.20
2018-12-06T00:25:42.398Z,4.30
2018-12-06T00:28:16.481Z,4.30
2018-12-06T00:30:51.507Z,4.20
2018-12-06T00:33:25.318Z,4.20
2018-12-06T00:35:59.418Z,4.20
2018-12-06T00:38:33.367Z,4.20
2018-12-06T00:41:07.533Z,4.20
2018-12-06T00:43:42.224Z,4.20
2018-12-06T00:46:16.414Z,4.20
2018-12-06T00:48:50.476Z,4.20
2018-12-06T00:51:24.631Z,4.30
2018-12-06T00:53:58.466Z,4.30
2018-12-06T00:56:32.865Z,4.30
2018-12-06T00:59:07.497Z,4.30
2018-12-06T01:01:42.553Z,4.30
2018-12-06T01:04:16.711Z,4.30
2018-12-06T01:06:50.710Z,4.30
2018-12-06T01:09:25.234Z,4.30
2018-12-06T01:11:59.397Z,4.30
2018-12-06T01:14:41.505Z,4.40
2018-12-06T01:17:15.749Z,4.40
2018-12-06T01:19:49.871Z,4.40
2018-12-06T01:22:23.975Z,4.40
2018-12-06T01:24:58.070Z,4.40
2018-12-06T01:27:32.989Z,4.40
2018-12-06T01:30:07.627Z,4.40
2018-12-06T01:32:43.251Z,4.40
2018-12-06T01:35:17.255Z,4.40
2018-12-06T01:37:51.587Z,4.50
2018-12-06T01:40:25.743Z,4.50
2018-12-06T01:43:00.115Z,4.50
2018-12-06T01:45:33.978Z,4.40
2018-12-06T01:48:08.356Z,4.40
2018-12-06T01:50:42.185Z,4.40
2018-12-06T01:53:16.473Z,4.40
2018-12-06T01:55:50.858Z,4.40
2018-12-06T01:58:25.134Z,4.40
2018-12-06T02:01:00.114Z,4.40
2018-12-06T02:03:34.669Z,4.40
2018-12-06T02:06:08.886Z,4.50
2018-12-06T02:08:43.071Z,4.50
2018-12-06T02:11:17.318Z,4.50
2018-12-06T02:13:51.343Z,4.50
2018-12-06T02:16:25.342Z,4.50
2018-12-06T02:18:59.455Z,4.50
2018-12-06T02:21:33.859Z,4.50
2018-12-06T02:24:07.928Z,4.50
2018-12-06T02:26:41.990Z,4.40
2018-12-06T02:29:16.074Z,4.40
2018-12-06T02:31:50.166Z,4.50
2018-12-06T02:34:24.139Z,4.50
2018-12-06T02:36:58.804Z,4.50
2018-12-06T02:39:32.895Z,4.50
2018-12-06T02:42:06.839Z,4.50
2018-12-06T02:44:41.000Z,4.40
2018-12-06T02:47:15.407Z,4.40
2018-12-06T02:49:49.845Z,4.40
2018-12-06T02:52:23.867Z,4.40
2018-12-06T02:54:58.381Z,4.40
2018-12-06T02:57:33.232Z,4.40
2018-12-06T03:00:07.536Z,4.30
2018-12-06T03:02:42.201Z,4.30
2018-12-06T03:05:16.368Z,4.30
2018-12-06T03:07:50.610Z,4.30
2018-12-06T03:10:24.990Z,4.30
2018-12-06T03:12:59.229Z,4.30
2018-12-06T03:15:33.456Z,4.40
2018-12-06T03:18:07.370Z,4.40
2018-12-06T03:20:41.730Z,4.40
2018-12-06T03:23:16.641Z,4.40
2018-12-06T03:25:50.931Z,4.40
2018-12-06T03:28:24.827Z,4.50
2018-12-06T03:30:58.956Z,4.50
2018-12-06T03:33:33.029Z,4.50
2018-12-06T03:36:07.175Z,4.50
2018-12-06T03:38:41.091Z,4.60
2018-12-06T03:41:16.074Z,4.60
2018-12-06T03:43:50.041Z,4.60
2018-12-06T03:46:24.458Z,4.60
2018-12-06T03:48:58.306Z,4.70
2018-12-06T03:51:32.263Z,4.70
2018-12-06T03:54:06.447Z,4.70
2018-12-06T03:56:40.861Z,4.70
2018-12-06T03:59:14.816Z,4.70
2018-12-06T04:01:49.343Z,4.70
2018-12-06T04:04:23.358Z,4.70
2018-12-06T04:06:57.671Z,4.70
2018-12-06T04:09:31.647Z,4.70
2018-12-06T04:12:05.689Z,4.70
2018-12-06T04:14:39.878Z,4.70
2018-12-06T04:17:13.917Z,4.70
2018-12-06T04:19:48.004Z,4.70
2018-12-06T04:22:22.144Z,4.70
2018-12-06T04:24:56.155Z,4.70
2018-12-06T04:27:30.171Z,4.70
2018-12-06T04:30:05.092Z,4.80
2018-12-06T04:32:39.322Z,4.80
2018-12-06T04:35:13.379Z,4.80
2018-12-06T04:37:47.543Z,4.80
2018-12-06T04:40:21.527Z,4.80
2018-12-06T04:42:55.776Z,4.80
2018-12-06T04:45:29.612Z,4.80
2018-12-06T04:48:04.004Z,4.80
2018-12-06T04:50:39.087Z,4.80
2018-12-06T04:53:13.357Z,4.80
2018-12-06T04:55:47.267Z,4.80
2018-12-06T04:58:21.902Z,4.80
2018-12-06T05:00:55.800Z,4.80
2018-12-06T05:03:29.916Z,4.80
2018-12-06T05:06:04.138Z,4.80
2018-12-06T05:08:38.348Z,4.80
2018-12-06T05:11:13.396Z,4.90
2018-12-06T05:13:47.601Z,4.80
2018-12-06T05:16:22.010Z,4.90
2018-12-06T05:18:56.147Z,4.90
2018-12-06T05:21:30.175Z,4.90
2018-12-06T05:24:04.366Z,4.90
2018-12-06T05:26:38.398Z,5.00
2018-12-06T05:29:12.589Z,4.90
2018-12-06T05:31:47.375Z,4.90
2018-12-06T05:34:21.642Z,4.90
2018-12-06T05:36:55.652Z,4.90
2018-12-06T05:39:30.071Z,4.90
2018-12-06T05:42:04.093Z,4.90
2018-12-06T05:44:39.319Z,4.90
2018-12-06T05:47:13.316Z,4.90
2018-12-06T05:49:49.480Z,4.90
2018-12-06T05:52:23.442Z,5.10
2018-12-06T05:54:57.527Z,5.00
2018-12-06T05:57:31.443Z,5.00
2018-12-06T06:00:07.202Z,5.10
2018-12-06T06:02:41.415Z,5.10
2018-12-06T06:05:15.515Z,5.00
2018-12-06T06:07:49.621Z,5.10
2018-12-06T06:10:23.803Z,5.10
2018-12-06T06:12:57.850Z,5.10
2018-12-06T06:15:32.785Z,5.20
2018-12-06T06:18:06.658Z,5.20
2018-12-06T06:20:41.363Z,5.20
2018-12-06T06:23:15.531Z,5.20
2018-12-06T06:25:49.851Z,5.30
2018-12-06T06:28:23.711Z,5.30
2018-12-06T06:30:58.618Z,5.30
2018-12-06T06:33:32.491Z,5.30
2018-12-06T06:36:07.207Z,5.40
2018-12-06T06:38:41.798Z,5.40
2018-12-06T06:41:15.970Z,5.40
2018-12-06T06:43:50.095Z,5.40
2018-12-06T06:46:24.302Z,5.50
2018-12-06T06:48:58.259Z,5.50
2018-12-06T06:51:32.610Z,5.60
2018-12-06T06:54:06.689Z,5.60
2018-12-06T06:56:40.867Z,5.60
2018-12-06T06:59:14.894Z,5.60
2018-12-06T07:01:49.009Z,5.70
2018-12-06T07:04:22.897Z,5.70
2018-12-06T07:06:57.026Z,5.70
2018-12-06T07:09:31.432Z,5.70
2018-12-06T07:12:05.753Z,5.80
2018-12-06T07:14:39.694Z,5.80
2018-12-06T07:17:13.890Z,5.80
2018-12-06T07:19:48.023Z,5.80
2018-12-06T07:22:22.200Z,5.90
2018-12-06T07:24:56.176Z,5.90
2018-12-06T07:27:30.174Z,5.90
2018-12-06T07:30:12.087Z,5.90
2018-12-06T07:32:41.450Z,5.90
2018-12-06T07:35:15.388Z,6.00
2018-12-06T07:37:49.567Z,6.00
2018-12-06T07:40:23.578Z,6.00
2018-12-06T07:42:57.615Z,6.10
2018-12-06T07:45:31.599Z,6.10
2018-12-06T07:48:06.019Z,6.10
2018-12-06T07:50:39.955Z,6.10
2018-12-06T07:53:14.064Z,6.10
2018-12-06T07:55:48.010Z,6.20
2018-12-06T07:58:22.044Z,6.20
2018-12-06T08:00:56.195Z,6.20
2018-12-06T08:03:31.203Z,6.30
2018-12-06T08:06:05.308Z,6.30
2018-12-06T08:08:39.534Z,6.30
2018-12-06T08:11:13.530Z,6.40
2018-12-06T08:13:47.879Z,6.40
2018-12-06T08:16:22.076Z,6.40
2018-12-06T08:18:56.520Z,6.40
2018-12-06T08:21:30.969Z,6.40
2018-12-06T08:24:05.050Z,6.40
2018-12-06T08:26:39.078Z,6.30
2018-12-06T08:29:13.090Z,6.30
2018-12-06T08:31:47.191Z,6.30
2018-12-06T08:34:21.451Z,6.30
2018-12-06T08:36:55.762Z,6.30
2018-12-06T08:39:30.029Z,6.30
2018-12-06T08:42:03.931Z,6.30
2018-12-06T08:44:38.131Z,6.30
2018-12-06T08:47:12.157Z,6.40
2018-12-06T08:49:46.561Z,6.40
2018-12-06T08:52:20.707Z,6.40
2018-12-06T08:54:54.815Z,6.50
2018-12-06T08:57:28.942Z,6.50
2018-12-06T09:00:03.045Z,6.50
2018-12-06T09:02:37.186Z,6.60
2018-12-06T09:05:11.278Z,6.70
2018-12-06T09:07:45.178Z,6.70
2018-12-06T09:10:19.256Z,6.70
2018-12-06T09:12:53.339Z,6.70
2018-12-06T09:15:27.637Z,6.80
2018-12-06T09:18:01.736Z,6.80
2018-12-06T09:20:35.815Z,6.90
2018-12-06T09:23:09.847Z,6.90
2018-12-06T09:25:46.318Z,7.00
2018-12-06T09:28:20.761Z,7.10
2018-12-06T09:31:01.049Z,7.20
2018-12-06T09:33:30.742Z,7.30
2018-12-06T09:36:04.800Z,7.30
2018-12-06T09:38:38.739Z,7.40
2018-12-06T09:41:12.718Z,7.40
2018-12-06T09:43:46.613Z,7.40
2018-12-06T09:46:20.642Z,7.50
2018-12-06T09:48:54.739Z,7.60
2018-12-06T09:51:29.008Z,7.60
2018-12-06T09:54:02.918Z,7.60
2018-12-06T09:56:36.944Z,7.70
2018-12-06T09:59:10.979Z,7.80
2018-12-06T10:01:45.259Z,7.90
2018-12-06T10:04:19.306Z,7.90
2018-12-06T10:06:53.369Z,7.90
2018-12-06T10:09:27.442Z,7.90
2018-12-06T10:12:01.581Z,8.00
2018-12-06T10:14:35.524Z,8.00
2018-12-06T10:17:09.642Z,8.00
2018-12-06T10:19:43.598Z,8.00
2018-12-06T10:22:17.766Z,8.10
2018-12-06T10:24:51.734Z,8.10
2018-12-06T10:27:25.864Z,8.10
2018-12-06T10:30:00.099Z,8.10
2018-12-06T10:32:34.354Z,8.10
2018-12-06T10:35:08.319Z,8.10
2018-12-06T10:37:42.479Z,8.10
2018-12-06T10:40:16.527Z,8.00
2018-12-06T10:42:50.673Z,8.10
2018-12-06T10:45:24.731Z,8.10
2018-12-06T10:47:59.020Z,8.10
2018-12-06T10:50:32.971Z,8.10
2018-12-06T10:53:07.143Z,8.10
2018-12-06T10:55:41.149Z,8.00
2018-12-06T10:58:15.733Z,8.10
2018-12-06T11:01:09.067Z,8.10
2018-12-06T11:03:48.880Z,8.20
2018-12-06T11:06:22.868Z,8.20
2018-12-06T11:08:57.537Z,8.30
2018-12-06T11:11:31.469Z,8.30
2018-12-06T11:14:05.780Z,8.30
2018-12-06T11:16:39.900Z,8.30
2018-12-06T11:19:41.535Z,8.30
2018-12-06T11:22:15.583Z,8.40
2018-12-06T11:24:49.574Z,8.40
2018-12-06T11:27:23.444Z,8.40
2018-12-06T11:29:57.402Z,8.50
2018-12-06T11:32:31.360Z,8.50
2018-12-06T11:35:06.191Z,8.50
2018-12-06T11:37:40.304Z,8.50
2018-12-06T11:40:14.432Z,8.50
2018-12-06T11:42:48.408Z,8.50
2018-12-06T11:45:22.420Z,8.50
2018-12-06T11:47:56.379Z,8.50
2018-12-06T11:50:30.402Z,8.50
2018-12-06T11:53:04.527Z,8.50
2018-12-06T11:55:38.582Z,8.50
2018-12-06T11:58:12.562Z,8.50
2018-12-06T12:00:46.568Z,8.50
2018-12-06T12:03:20.720Z,8.50
2018-12-06T12:05:58.548Z,8.50
2018-12-06T12:08:30.770Z,8.50
2018-12-06T12:11:04.762Z,8.50
2018-12-06T12:13:38.714Z,8.50
2018-12-06T12:16:12.776Z,8.50
2018-12-06T12:18:46.871Z,8.60
2018-12-06T12:21:20.966Z,8.60
2018-12-06T12:23:55.946Z,8.50
2018-12-06T12:26:30.179Z,8.60
2018-12-06T12:29:04.102Z,8.60
2018-12-06T12:31:38.125Z,8.60
2018-12-06T12:34:12.536Z,8.60
2018-12-06T12:36:46.528Z,8.60
2018-12-06T12:39:20.559Z,8.70
2018-12-06T12:41:54.750Z,8.70
2018-12-06T12:44:28.888Z,8.70
2018-12-06T12:47:02.902Z,8.70
2018-12-06T12:49:36.772Z,8.70
2018-12-06T12:52:10.947Z,8.70
2018-12-06T12:54:44.899Z,8.70
2018-12-06T12:57:18.999Z,8.70
2018-12-06T12:59:52.979Z,8.70
2018-12-06T13:02:27.043Z,8.70
2018-12-06T13:05:01.047Z,8.80
2018-12-06T13:07:35.245Z,8.80
2018-12-06T13:10:09.351Z,8.80
2018-12-06T13:12:43.602Z,8.80
2018-12-06T13:15:17.622Z,8.90
2018-12-06T13:17:51.635Z,8.90
2018-12-06T13:20:25.546Z,8.90
2018-12-06T13:22:59.555Z,8.90
2018-12-06T13:25:33.653Z,8.90
2018-12-06T13:28:07.655Z,9.00
2018-12-06T13:30:41.586Z,9.00
2018-12-06T13:33:15.570Z,9.00
2018-12-06T13:35:49.539Z,9.10
2018-12-06T13:38:23.714Z,9.10
2018-12-06T13:40:58.070Z,9.10
2018-12-06T13:43:32.053Z,9.10
2018-12-06T13:46:05.971Z,9.20
2018-12-06T13:48:40.278Z,9.20
2018-12-06T13:51:14.295Z,9.20
2018-12-06T13:53:48.883Z,9.30
2018-12-06T13:56:22.706Z,9.30
2018-12-06T13:58:57.109Z,9.30
2018-12-06T14:01:31.496Z,9.30
2018-12-06T14:04:06.037Z,9.40
2018-12-06T14:06:40.368Z,9.40
2018-12-06T14:09:14.623Z,9.40
2018-12-06T14:11:49.103Z,9.40
2018-12-06T14:14:23.827Z,9.40
2018-12-06T14:16:58.207Z,9.40
2018-12-06T14:19:32.939Z,9.50
2018-12-06T14:22:06.947Z,9.40
2018-12-06T14:24:41.524Z,9.50
2018-12-06T14:27:15.327Z,9.50
2018-12-06T14:29:49.547Z,9.50
2018-12-06T14:32:23.655Z,9.50
2018-12-06T14:34:57.683Z,9.50
2018-12-06T14:37:31.811Z,9.50
2018-12-06T14:40:06.912Z,9.50
2018-12-06T14:42:41.292Z,9.50
2018-12-06T14:45:15.783Z,9.60
2018-12-06T14:47:49.911Z,9.60
2018-12-06T14:50:23.900Z,9.60
2018-12-06T14:52:57.780Z,9.60
2018-12-06T14:55:32.231Z,9.60
2018-12-06T14:58:06.100Z,9.60
2018-12-06T15:00:40.343Z,9.60
2018-12-06T15:03:14.415Z,9.60
2018-12-06T15:05:48.426Z,9.60
2018-12-06T15:08:22.921Z,9.60
2018-12-06T15:10:57.391Z,9.60
2018-12-06T15:13:31.238Z,9.60
2018-12-06T15:16:05.707Z,9.70
2018-12-06T15:18:39.999Z,9.70
2018-12-06T15:21:14.527Z,9.70
2018-12-06T15:23:49.200Z,9.70
2018-12-06T15:26:23.694Z,9.70
2018-12-06T15:28:58.233Z,9.70
2018-12-06T15:31:32.744Z,9.70
2018-12-06T15:34:07.315Z,9.70
2018-12-06T15:36:41.871Z,9.80
2018-12-06T15:39:16.429Z,9.80
2018-12-06T15:41:50.487Z,9.80
2018-12-06T15:44:25.171Z,9.80
2018-12-06T15:46:59.564Z,9.90
2018-12-06T15:49:34.560Z,9.90
2018-12-06T15:52:08.894Z,9.90
2018-12-06T15:54:43.403Z,9.90
2018-12-06T15:57:17.685Z,9.90
2018-12-06T15:59:52.344Z,10.00
2018-12-06T16:02:26.896Z,9.90
2018-12-06T16:05:01.411Z,10.00
2018-12-06T16:07:35.835Z,10.00
2018-12-06T16:10:11.140Z,10.00
2018-12-06T16:12:45.576Z,10.00
2018-12-06T16:15:20.368Z,10.00
2018-12-06T16:17:54.768Z,10.00
2018-12-06T16:20:29.287Z,10.00
2018-12-06T16:23:03.685Z,10.10
2018-12-06T16:25:38.115Z,10.10
2018-12-06T16:28:12.466Z,10.10
2018-12-06T16:30:47.412Z,10.10
2018-12-06T16:33:21.937Z,10.10
2018-12-06T16:35:56.529Z,10.20
2018-12-06T16:38:31.018Z,10.20
2018-12-06T16:41:05.669Z,10.20
2018-12-06T16:43:39.978Z,10.20
2018-12-06T16:46:14.528Z,10.20
2018-12-06T16:48:48.986Z,10.20
2018-12-06T16:51:23.523Z,10.20
2018-12-06T16:53:57.964Z,10.30
2018-12-06T16:56:32.850Z,10.30
2018-12-06T16:59:07.255Z,10.30
2018-12-06T17:01:41.812Z,10.30
2018-12-06T17:04:16.298Z,10.30
2018-12-06T17:06:50.940Z,10.30
2018-12-06T17:09:25.232Z,10.30
2018-12-06T17:11:59.825Z,10.30
2018-12-06T17:14:34.959Z,10.30
2018-12-06T17:17:09.671Z,10.30
2018-12-06T17:19:44.092Z,10.40
2018-12-06T17:22:18.577Z,10.40
2018-12-06T17:24:52.427Z,10.40
2018-12-06T17:27:26.594Z,10.30
2018-12-06T17:30:00.774Z,10.40
2018-12-06T17:32:35.251Z,10.40
2018-12-06T17:35:11.324Z,10.40
2018-12-06T17:37:45.914Z,10.40
2018-12-06T17:40:19.754Z,10.40
2018-12-06T17:42:54.711Z,10.40
2018-12-06T17:45:28.622Z,10.40
2018-12-06T17:48:03.300Z,10.40
2018-12-06T17:50:37.329Z,10.40
2018-12-06T17:53:11.733Z,10.40
2018-12-06T17:55:53.308Z,10.40
2018-12-06T17:58:27.560Z,10.40
2018-12-06T18:01:02.007Z,10.40
2018-12-06T18:03:36.567Z,10.40
2018-12-06T18:06:10.870Z,10.40
2018-12-06T18:08:44.791Z,10.40
2018-12-06T18:11:18.890Z,10.40
2018-12-06T18:13:53.179Z,10.40
2018-12-06T18:16:27.176Z,10.40
2018-12-06T18:19:01.143Z,10.40
2018-12-06T18:21:35.564Z,10.40
2018-12-06T18:24:09.729Z,10.40
2018-12-06T18:26:44.460Z,10.50
2018-12-06T18:29:18.419Z,10.50
2018-12-06T18:31:52.899Z,10.40
2018-12-06T18:34:26.966Z,10.50
2018-12-06T18:37:01.451Z,10.50
2018-12-06T18:39:35.910Z,10.50
2018-12-06T18:42:10.015Z,10.40
2018-12-06T18:44:44.002Z,10.50
2018-12-06T18:47:18.188Z,10.40
2018-12-06T18:49:53.350Z,10.50
2018-12-06T18:52:27.841Z,10.50
2018-12-06T18:55:02.371Z,10.50
2018-12-06T18:57:36.700Z,10.60
2018-12-06T19:00:11.327Z,10.60
2018-12-06T19:02:45.515Z,10.60
2018-12-06T19:05:20.429Z,10.60
2018-12-06T19:07:54.910Z,10.60
2018-12-06T19:10:29.011Z,10.60
2018-12-06T19:13:03.138Z,10.60
2018-12-06T19:15:38.928Z,10.70
2018-12-06T19:18:13.482Z,10.70
2018-12-06T19:20:47.567Z,10.60
2018-12-06T19:23:22.241Z,10.70
2018-12-06T19:25:56.488Z,10.60
2018-12-06T19:28:30.592Z,10.70
2018-12-06T19:31:05.645Z,10.60
2018-12-06T19:33:39.756Z,10.60
2018-12-06T19:36:14.135Z,10.60
2018-12-06T19:38:48.112Z,10.60
2018-12-06T19:41:22.429Z,10.60
2018-12-06T19:43:56.347Z,10.60
2018-12-06T19:46:30.622Z,10.60
2018-12-06T19:49:04.719Z,10.60
2018-12-06T19:51:38.897Z,10.60
2018-12-06T19:54:12.915Z,10.60
2018-12-06T19:56:47.142Z,10.50
2018-12-06T19:59:21.181Z,10.60
2018-12-06T20:01:55.843Z,10.60
2018-12-06T20:04:30.118Z,10.60
2018-12-06T20:07:04.953Z,10.60
2018-12-06T20:09:39.883Z,10.60
2018-12-06T20:12:14.255Z,10.60
2018-12-06T20:14:48.302Z,10.60
2018-12-06T20:17:22.527Z,10.60
2018-12-06T20:19:56.531Z,10.60
2018-12-06T20:22:30.771Z,10.60
2018-12-06T20:25:05.557Z,10.50
2018-12-06T20:27:39.729Z,10.50
2018-12-06T20:30:13.880Z,10.50
2018-12-06T20:32:48.901Z,10.50
2018-12-06T20:35:22.866Z,10.40
2018-12-06T20:37:57.091Z,10.50
2018-12-06T20:40:31.019Z,10.50
2018-12-06T20:43:05.225Z,10.40
2018-12-06T20:45:39.351Z,10.40
2018-12-06T20:48:13.449Z,10.40
2018-12-06T20:50:49.458Z,10.40
2018-12-06T20:53:23.723Z,10.40
2018-12-06T20:55:58.159Z,10.40
2018-12-06T20:58:32.679Z,10.50
2018-12-06T21:01:07.036Z,10.40
2018-12-06T21:03:42.128Z,10.40
2018-12-06T21:06:16.611Z,10.40
2018-12-06T21:08:50.728Z,10.40
2018-12-06T21:11:24.966Z,10.40
2018-12-06T21:14:00.454Z,10.50
2018-12-06T21:16:34.399Z,10.40
2018-12-06T21:19:09.763Z,10.50
2018-12-06T21:21:43.926Z,10.50
2018-12-06T21:24:19.027Z,10.40
2018-12-06T21:26:53.704Z,10.50
2018-12-06T21:29:27.839Z,10.50
2018-12-06T21:32:02.347Z,10.50
2018-12-06T21:34:36.708Z,10.50
2018-12-06T21:37:11.503Z,10.50
2018-12-06T21:39:46.055Z,10.50
2018-12-06T21:42:21.531Z,10.50
2018-12-06T21:44:55.918Z,10.50
2018-12-06T21:47:30.359Z,10.50
2018-12-06T21:50:06.792Z,10.50
2018-12-06T21:52:42.092Z,10.50
2018-12-06T21:55:16.374Z,10.50
2018-12-06T21:57:50.438Z,10.60
2018-12-06T22:00:24.583Z,10.60
2018-12-06T22:02:59.112Z,10.60
2018-12-06T22:05:33.905Z,10.60
2018-12-06T22:08:07.853Z,10.60
2018-12-06T22:10:42.031Z,10.60
2018-12-06T22:13:16.100Z,10.60
2018-12-06T22:15:50.142Z,10.70
2018-12-06T22:18:25.120Z,10.70
2018-12-06T22:20:59.259Z,10.70
2018-12-06T22:23:34.142Z,10.70
2018-12-06T22:26:08.239Z,10.70
2018-12-06T22:28:43.007Z,10.70
2018-12-06T22:31:17.290Z,10.70
2018-12-06T22:33:52.704Z,10.70
2018-12-06T22:36:27.154Z,10.70
2018-12-06T22:39:01.448Z,10.70
2018-12-06T22:41:36.478Z,10.70
2018-12-06T22:44:10.428Z,10.70
2018-12-06T22:46:44.553Z,10.70
2018-12-06T22:49:19.218Z,10.70
2018-12-06T22:51:53.302Z,10.80
2018-12-06T22:54:27.307Z,10.80
2018-12-06T22:57:01.718Z,10.80
2018-12-06T22:59:36.787Z,10.80
2018-12-06T23:02:11.170Z,10.80
2018-12-06T23:04:45.205Z,10.80
2018-12-06T23:07:19.607Z,10.80
2018-12-06T23:09:54.370Z,10.80
2018-12-06T23:12:28.930Z,10.90
2018-12-06T23:15:02.979Z,10.90
2018-12-06T23:17:37.050Z,10.90
2018-12-06T23:20:11.814Z,10.90
2018-12-06T23:22:45.714Z,10.90
2018-12-06T23:25:20.130Z,10.90
2018-12-06T23:27:54.548Z,10.90
2018-12-06T23:30:29.278Z,10.90
2018-12-06T23:33:03.247Z,10.90
2018-12-06T23:35:37.567Z,10.90
2018-12-06T23:38:11.782Z,10.90
2018-12-06T23:40:46.311Z,11.00
2018-12-06T23:43:20.317Z,11.00
2018-12-06T23:45:54.919Z,11.00
2018-12-06T23:48:28.998Z,11.00
2018-12-06T23:54:02.902Z,11.00
2018-12-06T23:56:37.204Z,11.00
2018-12-06T23:59:11.245Z,11.10
